Time;durP1;ratioP1;P1;durP2;ratioP2;P2;SDS_P1;SDS_P2;PMS_P1;PMS_P2;Temp;Humidity;BMP_temperature;BMP_pressure;BME280_temperature;BME280_humidity;BME280_pressure;Samples;Min_cycle;Max_cycle;Signal;HPM_P1;HPM_P2
2021/08/30 00:00:38;;;;;;;11.65;7.15;;;;;;;19.55;100.00;98168.48;1679183;83;21116;-67
2021/08/30 00:03:06;;;;;;;8.93;7.28;;;;;;;19.56;100.00;98176.90;1670148;84;21019;-67
2021/08/30 00:05:35;;;;;;;11.97;7.22;;;;;;;19.54;100.00;98179.28;1677277;83;21043;-68
2021/08/30 00:08:05;;;;;;;13.25;7.72;;;;;;;19.53;100.00;98177.08;1721705;82;21141;-67
2021/08/30 00:10:35;;;;;;;14.50;7.37;;;;;;;19.51;100.00;98165.57;1722967;82;21517;-68
2021/08/30 00:13:05;;;;;;;6.75;6.05;;;;;;;19.50;100.00;98159.84;1722391;82;21019;-64
2021/08/30 00:15:34;;;;;;;8.60;6.47;;;;;;;19.49;100.00;98175.02;1726145;82;21183;-63
2021/08/30 00:18:04;;;;;;;8.78;7.12;;;;;;;19.50;100.00;98150.47;1722122;81;21077;-63
2021/08/30 00:20:33;;;;;;;8.38;7.10;;;;;;;19.49;100.00;98150.09;1721655;83;21910;-63
2021/08/30 00:23:01;;;;;;;8.18;7.33;;;;;;;19.48;100.00;98161.27;1720416;82;21429;-63
2021/08/30 00:25:31;;;;;;;8.85;6.90;;;;;;;19.46;100.00;98160.97;1720521;82;21463;-63
2021/08/30 00:27:59;;;;;;;11.90;7.33;;;;;;;19.46;100.00;98159.62;1721202;82;21033;-63
2021/08/30 00:30:28;;;;;;;10.78;7.25;;;;;;;19.48;100.00;98134.98;1719755;82;21469;-64
2021/08/30 00:32:57;;;;;;;9.00;7.05;;;;;;;19.47;100.00;98140.81;1720463;83;21880;-63
2021/08/30 00:35:28;;;;;;;9.00;7.05;;;;;;;19.45;100.00;98150.74;1720251;82;21466;-63
2021/08/30 00:37:57;;;;;;;10.32;7.10;;;;;;;19.43;100.00;98143.76;1721487;82;21064;-64
2021/08/30 00:40:26;;;;;;;10.93;7.53;;;;;;;19.41;100.00;98128.28;1722714;82;21038;-63
2021/08/30 00:42:56;;;;;;;8.13;7.10;;;;;;;19.38;100.00;98126.61;1706907;82;21046;-63
2021/08/30 00:45:25;;;;;;;8.05;6.67;;;;;;;19.38;100.00;98127.08;1703143;82;21161;-63
2021/08/30 00:47:55;;;;;;;10.53;6.95;;;;;;;19.36;100.00;98123.16;1720283;82;21443;-64
2021/08/30 00:50:23;;;;;;;10.72;7.40;;;;;;;19.35;100.00;98128.13;1717833;82;20946;-64
2021/08/30 00:52:52;;;;;;;8.20;7.40;;;;;;;19.34;100.00;98144.25;1671249;84;21506;-64
2021/08/30 00:55:21;;;;;;;9.85;7.08;;;;;;;19.32;100.00;98155.04;1720284;82;21009;-62
2021/08/30 00:57:51;;;;;;;9.40;7.25;;;;;;;19.29;100.00;98169.92;1712899;82;21144;-66
2021/08/30 01:00:20;;;;;;;10.93;7.97;;;;;;;19.31;100.00;98177.86;1720838;82;20937;-67
2021/08/30 01:02:49;;;;;;;14.50;7.50;;;;;;;19.33;100.00;98165.27;1725808;81;21495;-67
2021/08/30 01:05:18;;;;;;;8.78;7.30;;;;;;;19.32;100.00;98165.73;1723089;82;20918;-68
2021/08/30 01:08:10;;;;;;;13.08;8.50;;;;;;;19.33;100.00;98149.22;1688067;83;21444;-67
2021/08/30 01:10:57;;;;;;;11.55;8.03;;;;;;;19.31;100.00;98139.95;1700060;84;21132;-67
2021/08/30 01:13:45;;;;;;;9.53;7.85;;;;;;;19.28;100.00;98133.44;1664279;85;20966;-67
2021/08/30 01:16:14;;;;;;;11.38;7.75;;;;;;;19.25;100.00;98138.09;1690837;84;20959;-66
2021/08/30 01:18:43;;;;;;;10.78;7.60;;;;;;;19.19;100.00;98126.81;1679332;84;21560;-68
2021/08/30 01:21:20;;;;;;;11.12;7.90;;;;;;;19.17;100.00;98131.86;1692926;83;21540;-67
2021/08/30 01:24:02;;;;;;;10.55;8.03;;;;;;;19.16;100.00;98136.34;1681474;84;21451;-67
2021/08/30 01:26:48;;;;;;;10.15;8.23;;;;;;;19.14;100.00;98133.36;1710907;82;20873;-67
2021/08/30 01:29:36;;;;;;;9.85;8.45;;;;;;;19.12;100.00;98145.95;1721807;82;21436;-67
2021/08/30 01:32:32;;;;;;;8.38;7.58;;;;;;;19.09;100.00;98146.99;1704255;82;21511;-68
2021/08/30 01:35:04;;;;;;;12.65;7.83;;;;;;;19.09;100.00;98150.14;1719920;82;21470;-67
2021/08/30 01:37:33;;;;;;;;;;;;;;;19.08;100.00;98159.97;1715646;82;21145;-67
2021/08/30 01:40:01;;;;;;;11.10;8.05;;;;;;;19.07;100.00;98160.92;1698766;83;20416;-67
2021/08/30 01:42:31;;;;;;;12.47;7.87;;;;;;;19.04;100.00;98158.42;1705029;84;21547;-66
2021/08/30 01:45:01;;;;;;;10.53;8.55;;;;;;;19.02;100.00;98156.78;1686193;83;20972;-67
2021/08/30 01:47:30;;;;;;;12.88;8.85;;;;;;;19.01;100.00;98164.41;1706980;82;20925;-66
2021/08/30 01:50:02;;;;;;;12.53;8.75;;;;;;;19.01;100.00;98148.37;1721729;82;21934;-67
2021/08/30 01:52:39;;;;;;;10.40;8.25;;;;;;;19.00;100.00;98138.63;1719821;82;21502;-66
2021/08/30 01:56:15;;;;;;;10.08;8.50;;;;;;;18.99;100.00;98139.58;1720236;82;20947;-66
2021/08/30 02:03:25;;;;;;;16.37;9.23;;;;;;;18.98;100.00;98131.17;1687889;83;21164;-66
2021/08/30 02:06:05;;;;;;;9.73;8.73;;;;;;;18.95;100.00;98127.34;1718609;83;21648;-66
2021/08/30 02:08:35;;;;;;;9.55;8.65;;;;;;;18.92;100.00;98120.36;1713095;82;20939;-67
2021/08/30 02:11:06;;;;;;;10.85;8.30;;;;;;;18.90;100.00;98120.88;1707545;83;21455;-67
2021/08/30 02:13:35;;;;;;;11.43;8.48;;;;;;;18.90;100.00;98114.67;1710232;83;20964;-67
2021/08/30 02:16:05;;;;;;;11.35;8.98;;;;;;;18.88;100.00;98116.10;1710985;83;21156;-66
2021/08/30 02:19:14;;;;;;;11.00;8.28;;;;;;;18.88;100.00;98123.64;1713659;82;20965;-67
2021/08/30 02:21:46;;;;;;;10.90;9.20;;;;;;;18.88;100.00;98123.64;1703960;83;20886;-66
2021/08/30 02:24:22;;;;;;;10.55;8.70;;;;;;;18.86;100.00;98129.55;1702917;82;21441;-67
2021/08/30 02:27:02;;;;;;;12.98;9.33;;;;;;;18.86;100.00;98138.03;1711537;82;21477;-67
2021/08/30 02:29:41;;;;;;;9.38;8.13;;;;;;;18.86;100.00;98145.58;1715993;83;21615;-67
2021/08/30 02:32:10;;;;;;;8.60;7.80;;;;;;;18.88;100.00;98146.83;1677876;83;20951;-67
2021/08/30 02:34:39;;;;;;;11.93;8.88;;;;;;;18.89;100.00;98151.22;1716024;83;21051;-67
2021/08/30 02:37:08;;;;;;;10.45;8.65;;;;;;;18.89;100.00;98149.89;1713807;82;20977;-67
2021/08/30 02:39:37;;;;;;;13.60;8.50;;;;;;;18.89;100.00;98151.22;1734487;81;20997;-66
2021/08/30 02:42:07;;;;;;;8.95;8.05;;;;;;;18.88;100.00;98154.38;1719164;82;21134;-67
2021/08/30 02:44:35;;;;;;;13.25;7.97;;;;;;;18.88;100.00;98146.83;1724760;83;21618;-67
2021/08/30 02:47:06;;;;;;;13.55;7.67;;;;;;;18.88;100.00;98141.02;1723487;82;21495;-67
2021/08/30 02:49:34;;;;;;;11.83;8.73;;;;;;;18.90;100.00;98140.06;1710636;82;20887;-67
2021/08/30 02:52:05;;;;;;;10.15;8.83;;;;;;;18.89;100.00;98137.86;1718689;82;21450;-66
2021/08/30 02:54:34;;;;;;;10.72;8.63;;;;;;;18.87;100.00;98135.75;1684971;83;21493;-67
2021/08/30 02:57:04;;;;;;;9.98;8.43;;;;;;;18.84;100.00;98143.47;1708000;83;20934;-67
2021/08/30 02:59:36;;;;;;;9.90;8.60;;;;;;;18.83;100.00;98144.89;1711229;82;20910;-67
2021/08/30 03:02:05;;;;;;;9.78;8.75;;;;;;;18.81;100.00;98139.63;1724429;82;20921;-67
2021/08/30 03:04:33;;;;;;;11.08;9.13;;;;;;;18.83;100.00;98148.89;1749326;81;20847;-68
2021/08/30 03:07:04;;;;;;;9.63;8.73;;;;;;;18.80;100.00;98145.92;1693227;83;21119;-66
2021/08/30 03:09:32;;;;;;;10.98;8.60;;;;;;;18.79;100.00;98147.34;1679410;84;20994;-61
2021/08/30 03:12:00;;;;;;;10.70;8.95;;;;;;;18.78;100.00;98147.81;1699149;83;21000;-62
2021/08/30 03:14:28;;;;;;;12.63;8.38;;;;;;;18.81;100.00;98159.67;1708133;83;20907;-62
2021/08/30 03:17:00;;;;;;;9.20;8.30;;;;;;;18.81;100.00;98162.34;1710987;82;20943;-61
2021/08/30 03:19:29;;;;;;;12.18;8.35;;;;;;;18.84;100.00;98170.19;1719493;82;21195;-61
2021/08/30 03:21:59;;;;;;;8.83;7.92;;;;;;;18.86;100.00;98166.95;1716398;82;21489;-62
2021/08/30 03:24:27;;;;;;;12.18;8.85;;;;;;;18.88;100.00;98162.86;1708910;82;20898;-61
2021/08/30 03:26:55;;;;;;;10.15;9.15;;;;;;;18.92;100.00;98158.20;1692458;83;21568;-62
2021/08/30 03:29:24;;;;;;;11.53;9.40;;;;;;;18.92;100.00;98159.55;1671399;85;20933;-62
2021/08/30 03:31:52;;;;;;;10.00;9.00;;;;;;;18.93;100.00;98159.97;1703666;84;21651;-61
2021/08/30 03:34:20;;;;;;;13.08;9.78;;;;;;;18.94;100.00;98162.55;1703183;84;21004;-62
2021/08/30 03:36:48;;;;;;;13.80;10.50;;;;;;;18.96;100.00;98170.02;1675711;84;20914;-61
2021/08/30 03:39:17;;;;;;;11.85;10.60;;;;;;;18.99;100.00;98158.29;1675917;84;21061;-61
2021/08/30 03:41:46;;;;;;;13.93;11.68;;;;;;;19.01;100.00;98165.75;1676704;84;20962;-61
2021/08/30 03:44:14;;;;;;;11.18;9.98;;;;;;;19.02;100.00;98168.33;1706615;84;22013;-62
2021/08/30 03:46:44;;;;;;;11.60;10.08;;;;;;;19.03;100.00;98167.38;1708339;84;20930;-61
2021/08/30 03:49:13;;;;;;;16.30;10.28;;;;;;;19.05;100.00;98161.95;1708156;83;20942;-61
2021/08/30 03:51:42;;;;;;;15.45;10.00;;;;;;;19.07;100.00;98166.27;1709892;83;20971;-62
2021/08/30 03:54:11;;;;;;;12.23;9.38;;;;;;;19.08;100.00;98163.12;1708139;84;20871;-62
2021/08/30 03:56:39;;;;;;;11.05;9.25;;;;;;;19.11;100.00;98166.95;1697391;83;21217;-62
2021/08/30 03:59:08;;;;;;;11.00;9.90;;;;;;;19.12;100.00;98172.69;1710040;83;21493;-61
2021/08/30 04:01:40;;;;;;;13.78;9.65;;;;;;;19.11;100.00;98161.13;1718035;83;21592;-62
2021/08/30 04:04:05;;;;;;;10.82;9.73;;;;;;;19.11;100.00;98160.27;1713917;82;21046;-63
2021/08/30 04:06:34;;;;;;;12.10;9.08;;;;;;;19.12;100.00;98159.33;1688530;84;20959;-62
2021/08/30 04:09:02;;;;;;;11.75;9.45;;;;;;;19.13;100.00;98162.38;1691258;84;21146;-62
2021/08/30 04:11:32;;;;;;;12.30;9.73;;;;;;;19.16;100.00;98169.75;1691470;84;21510;-62
2021/08/30 04:14:02;;;;;;;10.82;9.55;;;;;;;19.17;100.00;98170.62;1684002;84;21477;-63
2021/08/30 04:16:32;;;;;;;11.00;9.70;;;;;;;19.18;100.00;98169.67;1687568;84;21463;-61
2021/08/30 04:19:01;;;;;;;11.05;9.63;;;;;;;19.18;100.00;98170.53;1691657;84;20904;-62
2021/08/30 04:21:29;;;;;;;10.18;9.18;;;;;;;19.18;100.00;98168.33;1706208;84;21524;-61
2021/08/30 04:23:57;;;;;;;10.03;9.03;;;;;;;19.21;100.00;98172.64;1721483;82;21090;-62
2021/08/30 04:26:25;;;;;;;10.88;9.63;;;;;;;19.22;100.00;98176.56;1681887;84;20963;-62
2021/08/30 04:28:53;;;;;;;10.53;9.45;;;;;;;19.22;100.00;98175.70;1715802;82;20880;-63
2021/08/30 04:31:21;;;;;;;13.80;10.00;;;;;;;19.20;100.00;98170.44;1719624;83;20911;-67
2021/08/30 04:33:49;;;;;;;12.98;10.32;;;;;;;19.20;100.00;98171.78;1720435;83;21121;-63
2021/08/30 04:36:18;;;;;;;13.93;9.45;;;;;;;19.19;100.00;98174.93;1720506;82;20944;-63
2021/08/30 04:38:46;;;;;;;11.50;9.28;;;;;;;19.21;100.00;98178.85;1721575;82;21551;-63
2021/08/30 04:41:15;;;;;;;11.63;9.48;;;;;;;19.23;100.00;98180.97;1703315;83;20961;-64
2021/08/30 04:43:46;;;;;;;11.05;9.35;;;;;;;19.26;100.00;98183.94;1707545;82;21440;-62
2021/08/30 04:46:14;;;;;;;13.43;10.85;;;;;;;19.26;100.00;98182.13;1704824;82;21165;-64
2021/08/30 04:48:43;;;;;;;11.60;10.13;;;;;;;19.30;100.00;98180.14;1708799;83;21419;-65
2021/08/30 04:51:11;;;;;;;12.00;10.58;;;;;;;19.29;100.00;98177.94;1701948;83;20989;-65
2021/08/30 04:53:39;;;;;;;11.18;9.68;;;;;;;19.30;100.00;98176.13;1704699;83;21511;-65
2021/08/30 04:56:07;;;;;;;12.93;10.90;;;;;;;19.33;100.00;98170.61;1677706;84;20924;-61
2021/08/30 04:58:36;;;;;;;10.82;9.73;;;;;;;19.34;100.00;98169.66;1691411;84;21131;-61
2021/08/30 05:01:03;;;;;;;11.70;10.50;;;;;;;19.35;100.00;98165.56;1704048;82;20984;-64
2021/08/30 05:03:31;;;;;;;14.95;10.03;;;;;;;19.38;100.00;98162.71;1720020;82;21121;-66
2021/08/30 05:06:00;;;;;;;12.30;11.00;;;;;;;19.39;100.00;98156.45;1719912;82;20983;-66
2021/08/30 05:08:32;;;;;;;12.90;11.53;;;;;;;19.41;100.00;98152.34;1720115;82;21070;-66
2021/08/30 05:11:01;;;;;;;13.72;11.08;;;;;;;19.41;100.00;98146.52;1719312;82;21545;-67
2021/08/30 05:13:30;;;;;;;12.18;10.85;;;;;;;19.42;100.00;98146.05;1718700;82;21089;-66
2021/08/30 05:15:59;;;;;;;12.68;11.35;;;;;;;19.42;100.00;98141.55;1718813;82;21549;-67
2021/08/30 05:18:29;;;;;;;15.30;12.28;;;;;;;19.42;100.00;98144.23;1719702;83;20991;-67
2021/08/30 05:20:57;;;;;;;13.90;12.40;;;;;;;19.43;100.00;98138.41;1720232;83;20947;-67
2021/08/30 05:23:26;;;;;;;15.28;12.98;;;;;;;19.44;100.00;98140.99;1720270;82;21997;-67
2021/08/30 05:25:55;;;;;;;18.30;13.48;;;;;;;19.44;100.00;98136.98;1720165;82;20888;-66
2021/08/30 05:28:23;;;;;;;19.42;15.28;;;;;;;19.45;100.00;98143.19;1720165;83;21363;-67
2021/08/30 05:30:51;;;;;;;18.37;15.20;;;;;;;19.46;100.00;98143.11;1720180;83;21024;-66
2021/08/30 05:33:19;;;;;;;21.45;15.08;;;;;;;19.50;100.00;98149.14;1720329;83;20967;-68
2021/08/30 05:35:47;;;;;;;20.30;15.45;;;;;;;19.54;100.00;98145.36;1720202;82;21222;-68
2021/08/30 05:38:15;;;;;;;15.28;13.68;;;;;;;19.57;100.00;98150.53;1720146;82;20963;-67
2021/08/30 05:40:44;;;;;;;17.52;15.13;;;;;;;19.58;100.00;98150.92;1720425;83;20987;-67
2021/08/30 05:43:13;;;;;;;22.50;16.93;;;;;;;19.61;100.00;98145.87;1720303;82;20947;-67
2021/08/30 05:45:41;;;;;;;18.52;14.70;;;;;;;19.65;100.00;98150.95;1720374;82;21353;-68
2021/08/30 05:48:09;;;;;;;14.90;13.03;;;;;;;19.70;100.00;98152.02;1720225;83;21155;-67
2021/08/30 05:50:39;;;;;;;14.13;12.35;;;;;;;19.74;100.00;98157.09;1720412;82;20982;-66
2021/08/30 05:53:08;;;;;;;15.05;13.28;;;;;;;19.79;100.00;98164.85;1720234;82;21066;-67
2021/08/30 05:55:36;;;;;;;15.63;13.95;;;;;;;19.81;100.00;98161.12;1720186;83;21141;-67
2021/08/30 05:58:04;;;;;;;17.07;13.55;;;;;;;19.81;100.00;98171.83;1720251;82;20975;-68
2021/08/30 06:00:32;;;;;;;16.15;13.10;;;;;;;19.83;100.00;98171.75;1720329;83;21175;-67
2021/08/30 06:03:00;;;;;;;15.25;13.65;;;;;;;19.86;100.00;98176.91;1720324;83;21489;-66
2021/08/30 06:05:29;;;;;;;16.93;12.73;;;;;;;19.88;100.00;98177.72;1719784;82;21039;-67
2021/08/30 06:07:57;;;;;;;15.55;13.70;;;;;;;19.91;100.00;98174.00;1708727;82;21002;-68
2021/08/30 06:10:24;;;;;;;15.08;13.48;;;;;;;19.92;100.00;98173.91;1712688;82;20945;-66
2021/08/30 06:12:53;;;;;;;15.18;13.58;;;;;;;19.95;100.00;98174.20;1724199;82;21164;-66
2021/08/30 06:15:22;;;;;;;16.40;14.68;;;;;;;19.97;100.00;98167.80;1721092;82;21019;-66
2021/08/30 06:17:50;;;;;;;15.50;13.90;;;;;;;19.98;100.00;98164.17;1712485;83;20996;-70
2021/08/30 06:20:18;;;;;;;15.90;14.20;;;;;;;20.00;100.00;98167.62;1715448;82;21124;-70
2021/08/30 06:22:48;;;;;;;18.62;15.00;;;;;;;20.04;100.00;98177.67;1718506;82;20995;-70
2021/08/30 06:25:17;;;;;;;18.02;14.58;;;;;;;20.06;100.00;98168.59;1715457;82;21130;-70
2021/08/30 06:27:46;;;;;;;18.60;15.05;;;;;;;20.08;100.00;98169.36;1723567;82;20953;-63
2021/08/30 06:30:14;;;;;;;17.02;15.23;;;;;;;20.10;100.00;98173.28;1709149;82;20905;-65
2021/08/30 06:32:42;;;;;;;16.93;13.93;;;;;;;20.10;100.00;98174.14;1696564;84;21081;-70
2021/08/30 06:35:12;;;;;;;15.15;13.55;;;;;;;20.12;100.00;98174.91;1699607;83;21020;-70
2021/08/30 06:37:42;;;;;;;18.87;14.58;;;;;;;20.14;100.00;98178.84;1706862;83;21533;-70
2021/08/30 06:40:12;;;;;;;15.55;13.75;;;;;;;20.16;100.00;98175.59;1707107;83;20932;-70
2021/08/30 06:42:39;;;;;;;15.93;14.33;;;;;;;20.17;100.00;98181.33;1706960;83;21926;-70
2021/08/30 06:45:08;;;;;;;19.02;15.13;;;;;;;20.18;100.00;98188.88;1706856;83;20893;-70
2021/08/30 06:47:36;;;;;;;16.95;15.13;;;;;;;20.18;100.00;98189.75;1706876;83;20948;-69
2021/08/30 06:50:07;;;;;;;17.75;13.88;;;;;;;20.20;100.00;98198.55;1706851;84;21520;-70
2021/08/30 06:52:35;;;;;;;15.48;13.75;;;;;;;20.23;100.00;98199.70;1707264;83;21032;-70
2021/08/30 06:55:03;;;;;;;15.08;12.78;;;;;;;20.26;100.00;98202.67;1706848;83;20932;-69
2021/08/30 06:57:34;;;;;;;20.52;14.18;;;;;;;20.28;100.00;98211.00;1707124;83;20913;-70
2021/08/30 07:00:04;;;;;;;17.85;15.03;;;;;;;20.30;100.00;98210.91;1706941;83;20905;-71
2021/08/30 07:02:32;;;;;;;18.52;15.05;;;;;;;20.31;100.00;98215.31;1706781;83;21125;-70
2021/08/30 07:05:01;;;;;;;16.65;14.20;;;;;;;20.31;100.00;98208.61;1706821;83;21406;-71
2021/08/30 07:07:29;;;;;;;17.87;15.75;;;;;;;20.31;100.00;98217.51;1707087;83;20933;-71
2021/08/30 07:09:59;;;;;;;16.73;14.87;;;;;;;20.32;100.00;98225.92;1700855;83;21497;-70
2021/08/30 07:12:27;;;;;;;16.48;14.78;;;;;;;20.35;100.00;98226.25;1698380;83;20941;-70
2021/08/30 07:14:55;;;;;;;16.55;14.45;;;;;;;20.35;100.00;98231.61;1698027;83;22047;-71
2021/08/30 07:17:23;;;;;;;15.72;13.90;;;;;;;20.36;100.00;98234.20;1697938;83;21432;-70
2021/08/30 07:19:51;;;;;;;15.55;13.95;;;;;;;20.38;100.00;98241.66;1705530;82;20937;-70
2021/08/30 07:22:19;;;;;;;19.73;14.78;;;;;;;20.42;100.00;98252.61;1698244;83;20918;-69
2021/08/30 07:24:47;;;;;;;16.90;15.10;;;;;;;20.45;100.00;98247.55;1694249;84;20945;-70
2021/08/30 07:27:14;;;;;;;16.62;14.63;;;;;;;20.45;100.00;98250.22;1698334;83;21137;-70
2021/08/30 07:29:42;;;;;;;18.55;16.52;;;;;;;20.47;100.00;98250.99;1694370;84;20862;-69
2021/08/30 07:32:10;;;;;;;16.05;14.38;;;;;;;20.48;100.00;98247.83;1698132;83;20918;-70
2021/08/30 07:34:38;;;;;;;19.25;17.25;;;;;;;20.51;100.00;98247.65;1694320;84;20946;-70
2021/08/30 07:37:06;;;;;;;20.52;18.42;;;;;;;20.52;100.00;98246.69;1698029;83;20886;-70
2021/08/30 07:39:34;;;;;;;18.77;16.85;;;;;;;20.54;100.00;98248.80;1705280;83;21065;-70
2021/08/30 07:42:03;;;;;;;20.75;17.48;;;;;;;20.56;100.00;98262.97;1707151;83;20899;-70
2021/08/30 07:44:32;;;;;;;18.48;16.55;;;;;;;20.56;100.00;98263.83;1707133;83;20938;-70
2021/08/30 07:47:02;;;;;;;16.17;14.50;;;;;;;20.54;100.00;98269.76;1707047;83;21468;-70
2021/08/30 07:49:29;;;;;;;17.02;14.47;;;;;;;20.56;100.00;98271.00;1707230;83;20929;-70
2021/08/30 07:51:57;;;;;;;18.67;14.00;;;;;;;20.55;100.00;98271.48;1707127;83;21910;-71
2021/08/30 07:54:25;;;;;;;16.12;14.43;;;;;;;20.54;100.00;98267.08;1707254;83;20921;-70
2021/08/30 07:56:53;;;;;;;16.55;14.90;;;;;;;20.55;100.00;98270.14;1707100;83;20949;-70
2021/08/30 07:59:21;;;;;;;16.97;15.18;;;;;;;20.56;100.00;98271.87;1707093;83;20972;-70
2021/08/30 08:01:49;;;;;;;15.90;12.95;;;;;;;20.58;100.00;98266.41;1707351;83;21483;-70
2021/08/30 08:04:18;;;;;;;13.48;12.03;;;;;;;20.61;100.00;98266.23;1707018;84;21569;-70
2021/08/30 08:06:46;;;;;;;15.60;14.00;;;;;;;20.65;100.00;98269.97;1707245;83;20976;-70
2021/08/30 08:09:13;;;;;;;15.13;13.62;;;;;;;20.70;100.00;98272.37;1706106;83;20878;-64
2021/08/30 08:11:41;;;;;;;17.42;13.62;;;;;;;20.73;100.00;98274.38;1705227;82;20962;-70
2021/08/30 08:14:09;;;;;;;15.60;13.65;;;;;;;20.77;100.00;98270.17;1704485;82;20991;-68
2021/08/30 08:16:37;;;;;;;16.27;13.60;;;;;;;20.82;100.00;98270.78;1705165;82;21153;-69
2021/08/30 08:19:06;;;;;;;15.60;13.83;;;;;;;20.86;100.00;98270.50;1711774;83;21031;-68
2021/08/30 08:21:35;;;;;;;15.28;13.60;;;;;;;20.89;100.00;98272.13;1711749;83;21487;-69
2021/08/30 08:24:06;;;;;;;16.32;14.47;;;;;;;20.91;100.00;98272.41;1711777;83;20961;-69
2021/08/30 08:26:34;;;;;;;16.35;14.63;;;;;;;20.93;100.00;98269.16;1711869;83;20917;-69
2021/08/30 08:29:03;;;;;;;16.80;13.62;;;;;;;20.94;100.00;98262.84;1712086;82;21142;-70
2021/08/30 08:31:32;;;;;;;15.43;13.40;;;;;;;20.97;100.00;98265.33;1711725;83;20905;-70
2021/08/30 08:34:00;;;;;;;14.83;13.30;;;;;;;21.02;100.00;98269.92;1712028;83;21492;-70
2021/08/30 08:36:28;;;;;;;17.30;13.93;;;;;;;21.07;100.00;98277.69;1711780;82;20909;-68
2021/08/30 08:38:56;;;;;;;16.45;14.33;;;;;;;21.13;100.00;98281.80;1712195;83;20901;-68
2021/08/30 08:41:24;;;;;;;15.75;13.45;;;;;;;21.18;100.00;98284.58;1711729;83;21114;-69
2021/08/30 08:43:54;;;;;;;16.35;14.07;;;;;;;21.25;100.00;98290.45;1711975;83;21070;-68
2021/08/30 08:46:22;;;;;;;13.83;11.97;;;;;;;21.31;100.00;98290.09;1711804;83;21090;-68
2021/08/30 08:48:51;;;;;;;16.12;12.95;;;;;;;21.35;100.00;98298.33;1711802;83;20957;-71
2021/08/30 08:51:19;;;;;;;14.05;12.58;;;;;;;21.37;100.00;98299.09;1712167;82;20979;-65
2021/08/30 08:53:47;;;;;;;14.75;13.28;;;;;;;21.41;100.00;98309.16;1711736;82;21979;-65
2021/08/30 08:56:17;;;;;;;16.27;13.53;;;;;;;21.41;100.00;98309.16;1711667;83;21086;-64
2021/08/30 08:58:46;;;;;;;15.10;13.45;;;;;;;21.41;100.00;98311.83;1711879;83;21531;-65
2021/08/30 09:01:14;;;;;;;16.87;15.05;;;;;;;21.43;100.00;98311.25;1711766;83;20992;-65
2021/08/30 09:03:46;;;;;;;15.58;13.05;;;;;;;21.43;100.00;98310.77;1711708;83;20866;-64
2021/08/30 09:06:26;;;;;;;14.93;13.43;;;;;;;21.42;100.00;98305.03;1712104;82;21052;-65
2021/08/30 09:09:06;;;;;;;13.30;12.00;;;;;;;21.43;100.00;98289.79;1690162;83;21091;-64
2021/08/30 09:11:45;;;;;;;12.90;11.60;;;;;;;21.45;100.00;98286.53;1711722;83;20893;-65
2021/08/30 09:14:16;;;;;;;12.53;11.08;;;;;;;21.51;100.00;98294.19;1687615;83;20953;-64
2021/08/30 09:16:43;;;;;;;13.75;12.35;;;;;;;21.58;100.00;98298.20;1711766;83;20941;-65
2021/08/30 09:19:15;;;;;;;13.70;11.65;;;;;;;21.64;100.00;98295.13;1711690;83;22017;-64
2021/08/30 09:21:47;;;;;;;14.07;12.47;;;;;;;21.68;100.00;98288.59;1711710;83;20936;-64
2021/08/30 09:24:19;;;;;;;13.67;11.17;;;;;;;21.74;100.00;98304.30;1712253;83;20953;-64
2021/08/30 09:26:59;;;;;;;12.75;10.88;;;;;;;21.78;100.00;98308.55;1686617;83;20974;-64
2021/08/30 09:29:31;;;;;;;12.00;10.40;;;;;;;21.85;100.00;98311.69;1678598;84;21576;-63
2021/08/30 09:32:15;;;;;;;12.47;10.63;;;;;;;21.89;100.00;98308.70;1683133;84;21194;-63
2021/08/30 09:34:50;;;;;;;12.45;11.15;;;;;;;21.92;100.00;98303.61;1679688;84;20943;-64
2021/08/30 09:37:22;;;;;;;10.18;9.20;;;;;;;21.93;100.00;98309.36;1687032;84;21460;-64
2021/08/30 09:39:57;;;;;;;10.45;9.43;;;;;;;21.93;100.00;98304.85;1688201;83;20982;-65
2021/08/30 09:42:26;;;;;;;13.60;10.13;;;;;;;21.98;100.00;98315.29;1679945;84;21051;-64
2021/08/30 09:44:57;;;;;;;11.40;10.23;;;;;;;22.00;100.00;98312.89;1683540;83;21957;-64
2021/08/30 09:47:25;;;;;;;15.23;10.50;;;;;;;22.01;100.00;98315.09;1685477;84;20931;-65
2021/08/30 09:49:55;;;;;;;9.50;8.58;;;;;;;22.02;100.00;98303.87;1682426;84;20954;-65
2021/08/30 09:52:23;;;;;;;9.83;8.65;;;;;;;22.05;100.00;98293.81;1684471;84;20968;-65
2021/08/30 09:54:52;;;;;;;12.23;8.55;;;;;;;22.10;100.00;98297.54;1685423;84;21417;-66
2021/08/30 09:57:20;;;;;;;14.23;9.35;;;;;;;22.14;100.00;98303.95;1687049;83;21141;-66
2021/08/30 09:59:48;;;;;;;10.48;9.48;;;;;;;22.17;100.00;98304.22;1685035;83;21007;-65
2021/08/30 10:02:17;;;;;;;11.57;9.63;;;;;;;22.19;100.00;98309.87;1658410;84;21106;-66
2021/08/30 10:04:46;;;;;;;10.75;9.63;;;;;;;22.23;100.00;98315.45;1679710;83;20927;-69
2021/08/30 10:07:13;;;;;;;12.13;9.45;;;;;;;22.26;100.00;98309.02;1707737;83;21536;-64
2021/08/30 10:09:41;;;;;;;10.70;9.60;;;;;;;22.29;100.00;98309.67;1653461;85;21267;-67
2021/08/30 10:12:09;;;;;;;10.63;9.58;;;;;;;22.33;100.00;98306.30;1717555;82;20857;-65
2021/08/30 10:14:37;;;;;;;12.03;9.73;;;;;;;22.38;100.00;98305.50;1720868;83;20908;-66
2021/08/30 10:17:05;;;;;;;10.23;9.13;;;;;;;22.43;100.00;98314.11;1705128;82;21019;-66
2021/08/30 10:19:35;;;;;;;12.58;9.28;;;;;;;22.48;100.00;98311.11;1712549;82;20969;-65
2021/08/30 10:22:19;;;;;;;9.85;8.95;;;;;;;22.52;100.00;98308.11;1716414;82;20997;-69
2021/08/30 10:24:47;;;;;;;;;;;;;;;22.56;100.00;98297.53;1707744;82;20963;-72
2021/08/30 10:27:14;;;;;;;11.08;10.00;;;;;;;22.57;100.00;98301.94;1718506;82;20433;-64
2021/08/30 10:29:44;;;;;;;11.38;10.28;;;;;;;22.55;100.00;98303.88;1717870;82;20948;-64
2021/08/30 10:32:25;;;;;;;10.88;9.78;;;;;;;22.55;100.00;98307.91;1713258;82;21556;-64
2021/08/30 10:34:55;;;;;;;9.93;8.93;;;;;;;22.57;100.00;98299.73;1711065;82;21176;-63
2021/08/30 10:37:26;;;;;;;10.68;9.40;;;;;;;22.61;100.00;98301.25;1714440;82;21011;-63
2021/08/30 10:39:57;;;;;;;10.82;9.63;;;;;;;22.65;100.00;98302.77;1648603;83;20997;-65
2021/08/30 10:42:25;;;;;;;11.40;10.20;;;;;;;22.71;100.00;98301.03;1661207;83;20998;-65
2021/08/30 10:45:04;;;;;;;12.37;9.08;;;;;;;22.81;100.00;98298.59;1718028;82;20943;-64
2021/08/30 10:47:37;;;;;;;9.83;8.83;;;;;;;22.93;100.00;98301.78;1703804;82;21102;-63
2021/08/30 10:50:07;;;;;;;10.70;8.68;;;;;;;23.14;100.00;98302.95;1699180;84;20954;-63
2021/08/30 10:52:40;;;;;;;10.00;8.75;;;;;;;23.34;100.00;98300.22;1701582;84;21024;-65
2021/08/30 10:55:18;;;;;;;9.73;8.83;;;;;;;23.52;100.00;98299.38;1685583;84;21023;-62
2021/08/30 10:57:52;;;;;;;9.93;8.38;;;;;;;23.70;100.00;98299.94;1688800;83;21287;-62
2021/08/30 11:00:33;;;;;;;11.10;8.93;;;;;;;23.82;100.00;98309.81;1689248;84;21165;-62
2021/08/30 11:03:02;;;;;;;12.40;8.90;;;;;;;23.95;100.00;98312.47;1690942;84;20859;-61
2021/08/30 11:05:31;;;;;;;9.50;7.80;;;;;;;24.03;100.00;98314.11;1677100;84;20910;-65
2021/08/30 11:07:59;;;;;;;8.80;8.00;;;;;;;24.12;100.00;98318.36;1680828;84;21070;-61
2021/08/30 11:10:28;;;;;;;9.53;8.63;;;;;;;24.21;100.00;98309.21;1705897;82;21010;-63
2021/08/30 11:12:56;;;;;;;12.43;9.48;;;;;;;24.25;100.00;98306.17;1687376;83;21821;-63
2021/08/30 11:15:32;;;;;;;11.50;8.90;;;;;;;24.29;100.00;98300.95;1717075;82;20987;-63
2021/08/30 11:18:03;;;;;;;10.28;9.28;;;;;;;24.36;100.00;98302.20;1692740;82;20999;-61
2021/08/30 11:20:33;;;;;;;10.53;8.95;;;;;;;24.49;100.00;98307.04;1712500;82;21507;-61
2021/08/30 11:23:02;;;;;;;10.65;7.97;;;;;;;24.65;100.00;98298.66;1718611;82;21379;-61
2021/08/30 11:25:37;;;;;;;8.93;7.67;;;;;;;24.83;100.00;98295.52;1684536;83;21440;-61
2021/08/30 11:28:17;;;;;;;8.18;7.47;;;;;;;25.00;100.00;98294.61;1704771;82;20952;-62
2021/08/30 11:30:45;;;;;;;10.75;8.85;;;;;;;25.15;100.00;98285.82;1703905;83;21390;-63
2021/08/30 11:33:24;;;;;;;9.48;8.58;;;;;;;25.29;100.00;98284.72;1703727;83;21505;-63